Time;durP1;ratioP1;P1;durP2;ratioP2;P2;SDS_P1;SDS_P2;PMS_P1;PMS_P2;Temp;Humidity;BMP_temperature;BMP_pressure;BME280_temperature;BME280_humidity;BME280_pressure;Samples;Min_cycle;Max_cycle;Signal;HPM_P1;HPM_P2
2023/09/28 00:03:00;;;;;;;10.75;7.10;;;;;;;;;;10347564;28;20224;-80
2023/09/28 00:08:01;;;;;;;8.98;8.05;;;;;;;;;;10356431;28;20228;-80
2023/09/28 00:13:03;;;;;;;8.75;6.85;;;;;;;;;;10349508;28;20212;-80
2023/09/28 00:18:04;;;;;;;7.43;6.43;;;;;;;;;;10353586;28;20231;-80
2023/09/28 00:23:05;;;;;;;10.40;8.02;;;;;;;;;;10353763;28;20358;-79
2023/09/28 00:28:06;;;;;;;7.68;6.75;;;;;;;;;;10349987;28;20236;-80
2023/09/28 00:33:07;;;;;;;7.75;6.95;;;;;;;;;;10346275;28;20208;-79
2023/09/28 00:38:09;;;;;;;12.63;7.97;;;;;;;;;;10352323;28;20216;-80
2023/09/28 00:43:11;;;;;;;10.48;8.23;;;;;;;;;;10352503;28;20757;-80
2023/09/28 00:48:12;;;;;;;10.70;7.88;;;;;;;;;;10354921;28;20596;-80
2023/09/28 00:53:13;;;;;;;10.75;7.63;;;;;;;;;;10371329;28;20879;-81
2023/09/28 00:58:14;;;;;;;8.55;7.05;;;;;;;;;;10335337;28;20212;-79
2023/09/28 01:03:16;;;;;;;8.65;7.78;;;;;;;;;;10332170;28;20565;-80
2023/09/28 01:08:21;;;;;;;9.27;7.53;;;;;;;;;;10330827;28;20713;-80
2023/09/28 01:13:24;;;;;;;9.23;7.40;;;;;;;;;;10335183;28;20204;-78
2023/09/28 01:18:25;;;;;;;8.88;7.82;;;;;;;;;;10348883;28;20220;-79
2023/09/28 01:23:26;;;;;;;9.63;7.50;;;;;;;;;;10346650;28;20311;-79
2023/09/28 01:28:28;;;;;;;10.27;7.82;;;;;;;;;;10343040;28;20226;-80
2023/09/28 01:33:29;;;;;;;9.38;7.72;;;;;;;;;;10347030;28;20222;-80
2023/09/28 01:38:30;;;;;;;10.07;7.68;;;;;;;;;;10347817;28;20228;-80
2023/09/28 01:43:32;;;;;;;10.32;8.32;;;;;;;;;;10344822;28;20223;-79
2023/09/28 01:48:33;;;;;;;12.68;8.73;;;;;;;;;;10325932;28;20224;-79
2023/09/28 01:53:35;;;;;;;8.98;7.55;;;;;;;;;;10347025;28;20635;-79
2023/09/28 01:58:36;;;;;;;12.25;8.52;;;;;;;;;;10348959;28;20274;-79
2023/09/28 02:03:37;;;;;;;12.55;8.18;;;;;;;;;;10326985;28;20229;-79
2023/09/28 02:08:38;;;;;;;9.85;8.38;;;;;;;;;;10348076;28;20216;-79
2023/09/28 02:13:39;;;;;;;11.82;8.85;;;;;;;;;;10331132;28;20576;-79
2023/09/28 02:18:42;;;;;;;12.48;8.93;;;;;;;;;;10329303;28;20266;-79
2023/09/28 02:23:43;;;;;;;13.40;9.32;;;;;;;;;;10344720;28;20216;-79
2023/09/28 02:28:44;;;;;;;13.20;9.38;;;;;;;;;;10347375;28;20223;-78
2023/09/28 02:33:47;;;;;;;12.07;9.05;;;;;;;;;;10350055;28;20224;-79
2023/09/28 02:38:48;;;;;;;13.25;9.25;;;;;;;;;;10347416;28;20227;-79
2023/09/28 02:43:49;;;;;;;13.35;9.20;;;;;;;;;;10350187;28;20301;-79
2023/09/28 02:48:51;;;;;;;13.07;8.90;;;;;;;;;;10343918;28;20267;-79
2023/09/28 02:53:52;;;;;;;13.07;9.75;;;;;;;;;;10347377;28;20200;-78
2023/09/28 02:58:55;;;;;;;12.60;9.27;;;;;;;;;;10344778;28;20216;-79
2023/09/28 03:03:56;;;;;;;14.00;9.65;;;;;;;;;;10344324;28;20281;-79
2023/09/28 03:08:57;;;;;;;14.65;9.20;;;;;;;;;;10333236;28;20690;-79
2023/09/28 03:13:58;;;;;;;13.00;10.18;;;;;;;;;;10333167;28;20246;-79
2023/09/28 03:19:00;;;;;;;15.35;9.60;;;;;;;;;;10327231;28;20228;-79
2023/09/28 03:24:02;;;;;;;15.68;9.82;;;;;;;;;;10355936;28;20235;-80
2023/09/28 03:29:06;;;;;;;19.02;10.35;;;;;;;;;;10338132;28;20301;-80
2023/09/28 03:34:07;;;;;;;16.60;11.45;;;;;;;;;;10356641;28;20954;-79
2023/09/28 03:39:08;;;;;;;18.33;11.40;;;;;;;;;;10350662;28;20358;-80
2023/09/28 03:44:09;;;;;;;20.27;10.93;;;;;;;;;;10350076;28;20223;-80
2023/09/28 03:49:10;;;;;;;16.75;10.65;;;;;;;;;;10358254;28;20219;-80
2023/09/28 03:54:11;;;;;;;16.83;10.77;;;;;;;;;;10356092;28;20220;-80
2023/09/28 03:59:12;;;;;;;15.63;10.20;;;;;;;;;;10356809;28;20719;-79
2023/09/28 04:04:13;;;;;;;14.48;10.18;;;;;;;;;;10335974;28;20215;-80
2023/09/28 04:09:15;;;;;;;16.77;10.95;;;;;;;;;;10339493;28;20841;-78
2023/09/28 04:14:16;;;;;;;19.58;11.30;;;;;;;;;;10354768;28;20215;-79
2023/09/28 04:19:17;;;;;;;14.68;10.18;;;;;;;;;;10338104;28;20270;-80
2023/09/28 04:24:18;;;;;;;18.73;12.23;;;;;;;;;;10334144;28;20339;-79
2023/09/28 04:29:20;;;;;;;18.05;11.80;;;;;;;;;;10339587;28;20215;-80
2023/09/28 04:34:21;;;;;;;17.10;10.65;;;;;;;;;;10336923;28;20313;-79
2023/09/28 04:39:24;;;;;;;18.25;11.43;;;;;;;;;;10350731;28;20282;-79
2023/09/28 04:44:25;;;;;;;18.58;11.05;;;;;;;;;;10354371;28;20248;-79
2023/09/28 04:49:26;;;;;;;18.02;11.07;;;;;;;;;;10355185;28;20311;-80
2023/09/28 04:54:27;;;;;;;16.85;10.88;;;;;;;;;;10350786;28;20222;-78
2023/09/28 04:59:28;;;;;;;18.83;11.98;;;;;;;;;;10348893;28;20236;-78
2023/09/28 05:04:29;;;;;;;18.10;11.05;;;;;;;;;;10350445;28;20991;-79
2023/09/28 05:09:30;;;;;;;18.88;10.25;;;;;;;;;;10332404;28;20224;-78
2023/09/28 05:14:31;;;;;;;18.27;11.43;;;;;;;;;;10345080;28;20216;-78
2023/09/28 05:19:32;;;;;;;18.98;12.38;;;;;;;;;;10350256;28;20216;-78
2023/09/28 05:24:33;;;;;;;17.23;10.98;;;;;;;;;;10332192;28;20235;-79
2023/09/28 05:29:34;;;;;;;15.85;10.60;;;;;;;;;;10339040;28;20212;-78
2023/09/28 05:34:36;;;;;;;17.45;11.25;;;;;;;;;;10356451;28;20216;-77
2023/09/28 05:39:37;;;;;;;24.73;11.95;;;;;;;;;;10349136;28;20667;-78
2023/09/28 05:44:39;;;;;;;19.38;11.98;;;;;;;;;;10348665;28;20219;-79
2023/09/28 05:49:40;;;;;;;21.27;13.05;;;;;;;;;;10346246;28;20277;-78
2023/09/28 05:54:42;;;;;;;18.77;11.85;;;;;;;;;;10321774;28;20230;-78
2023/09/28 05:59:43;;;;;;;18.40;12.70;;;;;;;;;;10345297;28;20234;-79
2023/09/28 06:04:44;;;;;;;25.92;12.88;;;;;;;;;;10345819;28;20216;-77
2023/09/28 06:09:45;;;;;;;23.23;13.48;;;;;;;;;;10346519;28;20250;-78
2023/09/28 06:14:46;;;;;;;23.15;13.90;;;;;;;;;;10345884;28;20223;-79
2023/09/28 06:19:47;;;;;;;21.00;13.10;;;;;;;;;;10346360;28;20239;-78
2023/09/28 06:24:49;;;;;;;28.20;13.88;;;;;;;;;;10345452;28;20251;-77
2023/09/28 06:29:52;;;;;;;21.25;13.50;;;;;;;;;;10341435;28;20640;-78
2023/09/28 06:34:53;;;;;;;24.17;14.13;;;;;;;;;;10329265;28;20212;-77
2023/09/28 06:39:56;;;;;;;26.70;14.82;;;;;;;;;;10349801;28;20228;-77
2023/09/28 06:44:57;;;;;;;22.48;13.70;;;;;;;;;;10347056;28;20215;-79
2023/09/28 06:49:58;;;;;;;29.45;15.23;;;;;;;;;;10348076;28;20218;-78
2023/09/28 06:54:59;;;;;;;28.90;16.63;;;;;;;;;;10344368;28;20228;-78
2023/09/28 07:00:06;;;;;;;29.65;16.77;;;;;;;;;;10349697;28;20244;-77
2023/09/28 07:05:07;;;;;;;26.27;15.55;;;;;;;;;;10346999;28;20713;-77
2023/09/28 07:10:10;;;;;;;25.48;15.60;;;;;;;;;;10348627;28;20396;-76
2023/09/28 07:15:11;;;;;;;27.05;15.25;;;;;;;;;;10334662;28;20199;-78
2023/09/28 07:20:14;;;;;;;22.52;14.02;;;;;;;;;;10346917;28;20181;-78
2023/09/28 07:25:15;;;;;;;23.13;13.98;;;;;;;;;;10336596;28;20235;-78
2023/09/28 07:30:20;;;;;;;18.33;13.43;;;;;;;;;;10337149;28;20991;-77
2023/09/28 07:35:21;;;;;;;17.55;12.00;;;;;;;;;;10333220;28;20907;-77
2023/09/28 07:40:24;;;;;;;15.95;11.43;;;;;;;;;;10323436;28;20307;-77
2023/09/28 07:45:25;;;;;;;16.00;11.32;;;;;;;;;;10326172;28;20224;-78
2023/09/28 07:50:26;;;;;;;13.45;10.23;;;;;;;;;;10327855;28;20222;-77
2023/09/28 07:55:27;;;;;;;9.93;9.00;;;;;;;;;;10332814;28;20215;-77
2023/09/28 08:00:28;;;;;;;13.02;9.40;;;;;;;;;;10334832;28;24516;-78
2023/09/28 08:05:31;;;;;;;14.15;8.93;;;;;;;;;;10334338;28;20235;-78
2023/09/28 08:10:33;;;;;;;13.20;7.78;;;;;;;;;;10323524;28;20312;-77
2023/09/28 08:15:34;;;;;;;7.90;7.15;;;;;;;;;;10339508;28;20598;-78
2023/09/28 08:20:35;;;;;;;7.40;6.28;;;;;;;;;;10339609;28;20278;-77
2023/09/28 08:25:36;;;;;;;7.82;6.07;;;;;;;;;;10343952;28;20305;-78
2023/09/28 08:30:37;;;;;;;7.28;6.07;;;;;;;;;;10344612;28;20274;-77
2023/09/28 08:35:38;;;;;;;6.15;5.72;;;;;;;;;;10344755;28;20220;-77
2023/09/28 08:40:40;;;;;;;6.28;5.68;;;;;;;;;;10349777;28;21140;-78
2023/09/28 08:45:41;;;;;;;5.53;5.22;;;;;;;;;;10338224;28;20216;-78
2023/09/28 08:50:44;;;;;;;6.80;5.35;;;;;;;;;;10323412;28;20753;-77
2023/09/28 08:55:46;;;;;;;6.95;5.25;;;;;;;;;;10346906;28;20787;-77
2023/09/28 09:00:47;;;;;;;5.72;5.20;;;;;;;;;;10340788;28;20215;-78
2023/09/28 09:05:50;;;;;;;6.78;4.72;;;;;;;;;;10338725;28;20216;-78
2023/09/28 09:10:51;;;;;;;5.40;4.70;;;;;;;;;;10345772;28;20220;-78
2023/09/28 09:15:53;;;;;;;5.10;4.75;;;;;;;;;;10338726;28;20221;-76
2023/09/28 09:21:00;;;;;;;6.57;4.80;;;;;;;;;;10340462;28;20589;-77
2023/09/28 09:26:02;;;;;;;5.20;4.88;;;;;;;;;;10341436;28;20232;-78
2023/09/28 09:31:04;;;;;;;7.90;5.47;;;;;;;;;;10342156;28;20603;-78
2023/09/28 09:36:06;;;;;;;4.88;4.57;;;;;;;;;;10318125;28;20238;-78
2023/09/28 09:41:07;;;;;;;4.97;4.68;;;;;;;;;;10348433;28;20250;-78
2023/09/28 09:46:09;;;;;;;5.82;4.90;;;;;;;;;;10337312;28;20215;-77
2023/09/28 09:51:14;;;;;;;4.28;3.97;;;;;;;;;;10340619;28;20230;-78
2023/09/28 09:56:16;;;;;;;2.30;2.20;;;;;;;;;;10343035;28;20255;-78
2023/09/28 10:01:17;;;;;;;2.05;2.00;;;;;;;;;;10346200;28;20816;-78
2023/09/28 10:06:19;;;;;;;1.77;1.73;;;;;;;;;;10349982;28;20674;-78
2023/09/28 10:11:22;;;;;;;1.58;1.58;;;;;;;;;;10343572;28;20228;-78
2023/09/28 10:16:23;;;;;;;1.85;1.50;;;;;;;;;;10341378;28;20286;-75
2023/09/28 10:21:25;;;;;;;2.42;2.00;;;;;;;;;;10343728;28;20697;-76
2023/09/28 10:26:31;;;;;;;1.77;1.67;;;;;;;;;;10346653;28;20232;-78
2023/09/28 10:31:33;;;;;;;1.65;1.65;;;;;;;;;;10340649;28;20273;-79
2023/09/28 10:36:35;;;;;;;2.65;1.80;;;;;;;;;;10340791;28;20315;-77
2023/09/28 10:41:50;;;;;;;1.73;1.73;;;;;;;;;;10363715;28;20223;-78
2023/09/28 10:46:52;;;;;;;2.97;1.42;;;;;;;;;;10327315;28;20222;-78
2023/09/28 10:51:54;;;;;;;4.70;1.80;;;;;;;;;;10337191;28;20224;-78
2023/09/28 10:56:55;;;;;;;1.23;1.20;;;;;;;;;;10349480;28;20720;-78
2023/09/28 11:01:56;;;;;;;2.22;1.40;;;;;;;;;;10344366;28;20208;-79
2023/09/28 11:07:00;;;;;;;3.70;1.50;;;;;;;;;;10345725;28;20284;-78
2023/09/28 11:12:08;;;;;;;1.50;1.40;;;;;;;;;;10347816;28;20500;-79
2023/09/28 11:17:09;;;;;;;2.17;2.08;;;;;;;;;;10346444;28;20212;-79
2023/09/28 11:22:11;;;;;;;2.83;1.70;;;;;;;;;;10349217;28;20277;-80
2023/09/28 11:27:12;;;;;;;1.52;1.42;;;;;;;;;;10329660;28;20265;-79
2023/09/28 11:32:14;;;;;;;1.60;1.50;;;;;;;;;;10341451;28;20223;-79
2023/09/28 11:37:18;;;;;;;4.72;1.83;;;;;;;;;;10344731;28;20220;-79
2023/09/28 11:42:21;;;;;;;1.65;1.65;;;;;;;;;;10339684;28;20208;-79
2023/09/28 11:47:23;;;;;;;1.55;1.45;;;;;;;;;;10324651;28;20605;-79
2023/09/28 11:52:24;;;;;;;1.75;1.20;;;;;;;;;;10348799;28;20219;-78
2023/09/28 11:57:27;;;;;;;1.85;1.33;;;;;;;;;;10353909;28;20220;-77
2023/09/28 12:02:28;;;;;;;1.40;1.40;;;;;;;;;;10345023;28;20311;-79
2023/09/28 12:07:29;;;;;;;1.52;1.52;;;;;;;;;;10347144;28;20211;-79
2023/09/28 12:12:31;;;;;;;1.40;1.30;;;;;;;;;;10352243;28;20755;-79
2023/09/28 12:17:32;;;;;;;1.92;1.73;;;;;;;;;;10343889;28;20311;-78
2023/09/28 12:22:33;;;;;;;1.40;1.40;;;;;;;;;;10332401;28;20299;-79
2023/09/28 12:27:38;;;;;;;1.20;1.20;;;;;;;;;;10333906;28;20738;-78
2023/09/28 12:32:39;;;;;;;1.70;1.60;;;;;;;;;;10326859;28;20212;-78
2023/09/28 12:37:40;;;;;;;1.15;1.15;;;;;;;;;;10343888;28;20291;-79
2023/09/28 12:42:41;;;;;;;1.23;1.23;;;;;;;;;;10345692;28;20933;-79
2023/09/28 12:47:42;;;;;;;1.30;1.30;;;;;;;;;;10344750;28;20208;-79
2023/09/28 12:52:44;;;;;;;1.50;1.40;;;;;;;;;;10335327;28;20232;-79
2023/09/28 12:57:45;;;;;;;2.53;1.67;;;;;;;;;;10346286;28;20677;-79
2023/09/28 13:02:46;;;;;;;1.58;1.48;;;;;;;;;;10341044;28;20211;-79
2023/09/28 13:07:48;;;;;;;1.70;1.60;;;;;;;;;;10320453;28;20590;-79
2023/09/28 13:12:51;;;;;;;1.30;1.30;;;;;;;;;;10336897;28;20470;-79
2023/09/28 13:17:53;;;;;;;1.30;1.30;;;;;;;;;;10335715;28;20732;-79
2023/09/28 13:22:57;;;;;;;1.92;1.83;;;;;;;;;;10340002;28;20275;-79
2023/09/28 13:27:58;;;;;;;1.48;1.48;;;;;;;;;;10340497;28;20242;-79
2023/09/28 13:32:59;;;;;;;2.47;1.25;;;;;;;;;;10312983;28;21887;-78
2023/09/28 13:38:00;;;;;;;1.83;1.73;;;;;;;;;;10325566;28;20591;-79
2023/09/28 13:43:05;;;;;;;1.42;1.38;;;;;;;;;;10341624;28;20278;-80
2023/09/28 13:48:06;;;;;;;1.58;1.58;;;;;;;;;;10346937;28;20606;-79
2023/09/28 13:53:08;;;;;;;1.40;1.30;;;;;;;;;;10346730;28;20207;-79
2023/09/28 13:58:12;;;;;;;1.75;1.33;;;;;;;;;;10339741;28;20239;-78
2023/09/28 14:03:13;;;;;;;1.05;1.05;;;;;;;;;;10324441;28;20351;-79
2023/09/28 14:08:15;;;;;;;1.50;1.40;;;;;;;;;;10329871;28;20255;-80
2023/09/28 14:13:16;;;;;;;1.50;1.50;;;;;;;;;;10344909;28;20310;-78
2023/09/28 14:18:17;;;;;;;2.33;1.23;;;;;;;;;;10342105;28;20228;-78
2023/09/28 14:23:18;;;;;;;1.25;1.25;;;;;;;;;;10334583;28;20788;-78
2023/09/28 14:28:19;;;;;;;1.35;1.35;;;;;;;;;;10340969;28;20216;-78
2023/09/28 14:33:21;;;;;;;1.13;1.13;;;;;;;;;;10343251;28;20212;-78
2023/09/28 14:38:22;;;;;;;1.42;1.15;;;;;;;;;;10337503;28;20720;-78
2023/09/28 14:43:23;;;;;;;1.77;1.67;;;;;;;;;;10338220;28;20220;-79
2023/09/28 14:48:24;;;;;;;3.22;0.93;;;;;;;;;;10336618;28;20298;-77
2023/09/28 14:53:25;;;;;;;0.90;0.90;;;;;;;;;;10342940;28;20250;-78
2023/09/28 14:58:27;;;;;;;1.20;1.10;;;;;;;;;;10320910;28;20215;-78
2023/09/28 15:03:30;;;;;;;1.50;1.50;;;;;;;;;;10333886;28;20254;-78
2023/09/28 15:08:32;;;;;;;1.55;1.30;;;;;;;;;;10342746;28;20220;-79
2023/09/28 15:13:33;;;;;;;1.10;1.10;;;;;;;;;;10336337;28;20219;-78
2023/09/28 15:18:34;;;;;;;1.35;1.25;;;;;;;;;;10341858;28;20219;-78
2023/09/28 15:23:35;;;;;;;0.88;0.88;;;;;;;;;;10320501;28;20230;-78
2023/09/28 15:28:38;;;;;;;1.05;1.00;;;;;;;;;;10352985;28;20251;-78
2023/09/28 15:33:39;;;;;;;1.50;1.50;;;;;;;;;;10353406;28;20285;-79
2023/09/28 15:38:40;;;;;;;1.40;1.30;;;;;;;;;;10346921;28;20223;-79
2023/09/28 15:43:41;;;;;;;1.20;1.20;;;;;;;;;;10333092;28;20224;-78
2023/09/28 15:48:42;;;;;;;2.53;1.00;;;;;;;;;;10354587;28;20223;-78
2023/09/28 15:53:43;;;;;;;1.98;1.48;;;;;;;;;;10353147;28;20970;-79
2023/09/28 15:58:45;;;;;;;1.63;1.40;;;;;;;;;;10338575;28;20216;-79
2023/09/28 16:03:53;;;;;;;0.93;0.93;;;;;;;;;;10347738;28;20247;-80
2023/09/28 16:08:54;;;;;;;1.13;1.13;;;;;;;;;;10353343;28;20611;-78
2023/09/28 16:13:55;;;;;;;1.35;1.25;;;;;;;;;;10343201;28;20227;-80
2023/09/28 16:18:56;;;;;;;1.13;1.13;;;;;;;;;;10327751;28;20748;-78
2023/09/28 16:23:57;;;;;;;1.10;1.10;;;;;;;;;;10338476;28;20307;-78
2023/09/28 16:28:58;;;;;;;1.08;1.08;;;;;;;;;;10348305;28;20697;-79
2023/09/28 16:33:59;;;;;;;1.30;1.30;;;;;;;;;;10335258;28;20267;-79
2023/09/28 16:39:00;;;;;;;1.63;1.63;;;;;;;;;;10341716;28;20652;-79
2023/09/28 16:44:01;;;;;;;1.95;1.80;;;;;;;;;;10350791;28;20278;-78
2023/09/28 16:49:03;;;;;;;1.80;1.80;;;;;;;;;;10343704;28;20226;-78
2023/09/28 16:54:04;;;;;;;1.27;1.27;;;;;;;;;;10346197;28;20246;-79
2023/09/28 16:59:05;;;;;;;2.13;1.65;;;;;;;;;;10349360;28;20783;-77
2023/09/28 17:04:06;;;;;;;1.38;1.38;;;;;;;;;;10351778;28;20224;-79
2023/09/28 17:09:07;;;;;;;3.05;1.80;;;;;;;;;;10347290;28;20224;-79
2023/09/28 17:14:08;;;;;;;2.08;1.30;;;;;;;;;;10351430;28;20883;-79
2023/09/28 17:19:09;;;;;;;1.60;1.52;;;;;;;;;;10359513;28;20239;-78
2023/09/28 17:24:10;;;;;;;2.22;2.13;;;;;;;;;;10339131;28;20228;-78
2023/09/28 17:29:11;;;;;;;2.47;2.28;;;;;;;;;;10345142;28;20238;-79
2023/09/28 17:34:13;;;;;;;2.38;2.28;;;;;;;;;;10353945;28;20238;-77
2023/09/28 17:39:14;;;;;;;2.33;2.17;;;;;;;;;;10341127;28;20232;-78
2023/09/28 17:44:15;;;;;;;2.53;2.42;;;;;;;;;;10343788;28;20235;-79
2023/09/28 17:49:16;;;;;;;2.97;2.35;;;;;;;;;;10347293;28;20251;-79
2023/09/28 17:54:17;;;;;;;2.40;2.30;;;;;;;;;;10339149;28;20212;-78
2023/09/28 17:59:19;;;;;;;2.10;2.00;;;;;;;;;;10353875;28;20216;-78
2023/09/28 18:04:21;;;;;;;2.83;2.65;;;;;;;;;;10355628;28;21350;-77
2023/09/28 18:09:22;;;;;;;2.90;2.78;;;;;;;;;;10353103;28;20228;-78
2023/09/28 18:14:23;;;;;;;2.50;2.40;;;;;;;;;;10342219;28;20223;-78
2023/09/28 18:19:24;;;;;;;2.45;2.35;;;;;;;;;;10357191;28;20217;-79
2023/09/28 18:24:25;;;;;;;2.60;2.50;;;;;;;;;;10350419;28;20252;-78
2023/09/28 18:29:28;;;;;;;2.42;2.22;;;;;;;;;;10353605;28;20319;-79
2023/09/28 18:34:29;;;;;;;2.50;2.40;;;;;;;;;;10351791;28;20323;-78
2023/09/28 18:39:30;;;;;;;2.05;2.05;;;;;;;;;;10344331;28;20247;-78
2023/09/28 18:44:31;;;;;;;2.75;2.65;;;;;;;;;;10341875;28;20250;-78
2023/09/28 18:49:33;;;;;;;2.08;2.08;;;;;;;;;;10341859;28;20223;-77
2023/09/28 18:54:35;;;;;;;4.32;4.10;;;;;;;;;;10342732;28;20307;-78
2023/09/28 18:59:36;;;;;;;3.65;3.35;;;;;;;;;;10344780;28;21169;-78
2023/09/28 19:04:39;;;;;;;8.77;6.25;;;;;;;;;;10338565;28;20230;-78
2023/09/28 19:09:40;;;;;;;7.38;4.55;;;;;;;;;;10338014;28;20740;-78
2023/09/28 19:14:42;;;;;;;5.38;4.88;;;;;;;;;;10343050;28;20673;-78
2023/09/28 19:19:43;;;;;;;4.60;4.20;;;;;;;;;;10346626;28;20220;-79
2023/09/28 19:24:44;;;;;;;4.68;4.25;;;;;;;;;;10345270;28;20232;-78
2023/09/28 19:29:45;;;;;;;4.22;3.90;;;;;;;;;;10344630;28;20216;-79
2023/09/28 19:34:46;;;;;;;4.60;3.92;;;;;;;;;;10346237;28;20226;-79
2023/09/28 19:39:47;;;;;;;4.00;3.70;;;;;;;;;;10335297;28;20208;-79
2023/09/28 19:44:48;;;;;;;3.42;3.20;;;;;;;;;;10351789;28;20764;-78
2023/09/28 19:49:49;;;;;;;3.10;3.00;;;;;;;;;;10350076;28;20251;-78
2023/09/28 19:54:50;;;;;;;4.32;3.13;;;;;;;;;;10348611;28;20208;-79
2023/09/28 19:59:51;;;;;;;3.45;3.10;;;;;;;;;;10351666;28;20225;-78
2023/09/28 20:04:52;;;;;;;3.10;3.00;;;;;;;;;;10352106;28;20224;-78
2023/09/28 20:09:53;;;;;;;3.28;3.08;;;;;;;;;;10351000;28;20745;-78
2023/09/28 20:14:54;;;;;;;4.50;4.00;;;;;;;;;;10356041;28;20295;-79
2023/09/28 20:19:55;;;;;;;3.97;3.70;;;;;;;;;;10356907;28;20741;-78
2023/09/28 20:24:56;;;;;;;4.15;3.75;;;;;;;;;;10355845;28;20323;-78
2023/09/28 20:29:57;;;;;;;4.00;3.80;;;;;;;;;;10359791;28;20222;-79
2023/09/28 20:34:58;;;;;;;4.03;3.72;;;;;;;;;;10359741;28;20227;-78
2023/09/28 20:40:00;;;;;;;3.88;3.58;;;;;;;;;;10360414;28;20243;-77
2023/09/28 20:45:01;;;;;;;4.32;4.10;;;;;;;;;;10355310;28;20224;-77
2023/09/28 20:50:03;;;;;;;4.85;4.55;;;;;;;;;;10355488;28;20224;-78
2023/09/28 20:55:05;;;;;;;4.15;3.72;;;;;;;;;;10357478;28;20204;-78
2023/09/28 21:00:10;;;;;;;4.22;3.90;;;;;;;;;;10353209;28;20203;-78
2023/09/28 21:05:12;;;;;;;4.60;3.97;;;;;;;;;;10356212;28;20208;-79
2023/09/28 21:10:13;;;;;;;3.50;3.30;;;;;;;;;;10358235;28;20212;-78
2023/09/28 21:15:14;;;;;;;3.95;3.42;;;;;;;;;;10345974;28;20263;-79
2023/09/28 21:20:18;;;;;;;4.55;3.85;;;;;;;;;;10353923;28;20184;-79
2023/09/28 21:25:19;;;;;;;5.28;3.58;;;;;;;;;;10352263;28;20315;-78
2023/09/28 21:30:20;;;;;;;4.78;4.20;;;;;;;;;;10353330;28;20220;-78
2023/09/28 21:35:21;;;;;;;8.38;4.05;;;;;;;;;;10353906;28;20582;-79
2023/09/28 21:40:22;;;;;;;4.20;3.90;;;;;;;;;;10354434;28;20218;-78
2023/09/28 21:45:23;;;;;;;3.78;3.60;;;;;;;;;;10361583;28;20646;-79
2023/09/28 21:50:24;;;;;;;3.63;3.42;;;;;;;;;;10356499;28;20354;-80
2023/09/28 21:55:25;;;;;;;4.78;3.95;;;;;;;;;;10339865;28;20295;-79
2023/09/28 22:00:34;;;;;;;4.28;3.97;;;;;;;;;;10338440;28;20220;-80
2023/09/28 22:05:35;;;;;;;4.30;3.92;;;;;;;;;;10345143;28;20721;-78
2023/09/28 22:10:36;;;;;;;4.70;4.40;;;;;;;;;;10364937;28;20419;-79
2023/09/28 22:15:38;;;;;;;4.68;4.30;;;;;;;;;;10349386;28;20226;-79
2023/09/28 22:20:40;;;;;;;4.38;3.60;;;;;;;;;;10352545;28;20351;-79
2023/09/28 22:25:41;;;;;;;3.85;3.63;;;;;;;;;;10355787;28;20730;-80
2023/09/28 22:30:42;;;;;;;4.60;4.28;;;;;;;;;;10355867;28;20239;-79
2023/09/28 22:35:43;;;;;;;3.88;3.63;;;;;;;;;;10353229;28;20222;-79
2023/09/28 22:40:44;;;;;;;4.50;4.20;;;;;;;;;;10354207;28;20239;-78
2023/09/28 22:45:45;;;;;;;4.70;4.28;;;;;;;;;;10352077;28;21308;-78
2023/09/28 22:50:46;;;;;;;5.05;3.60;;;;;;;;;;10352625;28;20332;-79
2023/09/28 22:55:47;;;;;;;3.60;3.40;;;;;;;;;;10355848;28;20216;-79
2023/09/28 23:00:49;;;;;;;4.20;3.92;;;;;;;;;;10332418;28;20215;-78
2023/09/28 23:05:50;;;;;;;3.38;3.22;;;;;;;;;;10345166;28;20220;-78
2023/09/28 23:10:54;;;;;;;3.80;3.42;;;;;;;;;;10351630;28;20417;-78
2023/09/28 23:15:55;;;;;;;3.83;3.67;;;;;;;;;;10334942;28;20715;-79
2023/09/28 23:20:56;;;;;;;4.00;3.80;;;;;;;;;;10344834;28;20204;-78
2023/09/28 23:25:57;;;;;;;3.28;3.15;;;;;;;;;;10349423;28;20228;-79
2023/09/28 23:30:58;;;;;;;4.07;3.72;;;;;;;;;;10352566;28;20670;-81
2023/09/28 23:36:01;;;;;;;4.18;3.53;;;;;;;;;;10351001;28;20306;-78
2023/09/28 23:41:05;;;;;;;4.45;3.97;;;;;;;;;;10350215;28;20220;-79
2023/09/28 23:46:07;;;;;;;5.00;4.57;;;;;;;;;;10352680;28;21152;-78
2023/09/28 23:51:09;;;;;;;4.15;3.95;;;;;;;;;;10358403;28;20290;-81
2023/09/28 23:56:12;;;;;;;3.40;3.30;;;;;;;;;;10358742;28;20227;-78
